createdAt,value
2016-06-09T00:00:33.876Z,53.35
2016-06-09T00:01:33.849Z,53.35
2016-06-09T00:02:33.836Z,54.03
2016-06-09T00:03:33.839Z,54.03
2016-06-09T00:04:33.811Z,54.13
2016-06-09T00:05:33.798Z,54.13
2016-06-09T00:06:33.786Z,54.22
2016-06-09T00:07:33.773Z,53.83
2016-06-09T00:08:33.761Z,53.74
2016-06-09T00:09:33.748Z,53.77
2016-06-09T00:10:33.752Z,54.15
2016-06-09T00:11:33.738Z,53.96
2016-06-09T00:12:33.710Z,53.47
2016-06-09T00:13:33.697Z,53.38
2016-06-09T00:14:33.685Z,54.35
2016-06-09T00:15:33.672Z,54.44
2016-06-09T00:16:33.659Z,54.71
2016-06-09T00:17:33.491Z,54.35
2016-06-09T00:18:33.634Z,54.25
2016-06-09T00:19:33.622Z,54.53
2016-06-09T00:20:33.610Z,54.53
2016-06-09T00:21:33.597Z,55.21
2016-06-09T00:22:33.569Z,55.51
2016-06-09T00:23:33.573Z,55.6
2016-06-09T00:24:33.559Z,55.87
2016-06-09T00:25:33.547Z,56.15
2016-06-09T00:26:33.535Z,55.79
2016-06-09T00:27:33.507Z,55.99
2016-06-09T00:28:33.494Z,55.79
2016-06-09T00:29:33.481Z,55.99
2016-06-09T00:30:33.469Z,56.37
2016-06-09T00:31:33.456Z,56.28
2016-06-09T00:32:33.444Z,56.73
2016-06-09T00:33:33.447Z,56.86
2016-06-09T00:34:33.418Z,56.95
2016-06-09T00:35:33.407Z,56.37
2016-06-09T00:36:33.409Z,57.24
2016-06-09T00:37:33.381Z,57.21
2016-06-09T00:38:33.369Z,57.41
2016-06-09T00:39:33.355Z,57.03
2016-06-09T00:40:33.343Z,57.12
2016-06-09T00:41:33.347Z,57.12
2016-06-09T00:42:33.318Z,57.15
2016-06-09T00:43:33.305Z,57.21
2016-06-09T00:44:33.293Z,57.51
2016-06-09T00:45:33.280Z,57.05
2016-06-09T00:46:33.268Z,57.44
2016-06-09T00:47:33.255Z,57.54
2016-06-09T00:48:33.758Z,57.89
2016-06-09T00:49:33.230Z,57.79
2016-06-09T00:50:33.217Z,58.28
2016-06-09T00:51:33.190Z,58.18
2016-06-09T00:52:33.177Z,58.09
2016-06-09T00:53:33.165Z,58.12
2016-06-09T00:54:33.152Z,58.18
2016-06-09T00:55:33.139Z,58.18
2016-06-09T00:56:33.126Z,58.09
2016-06-09T00:57:33.114Z,58.12
2016-06-09T00:58:33.102Z,58.86
2016-06-09T00:59:32.933Z,58.86
2016-06-09T01:00:33.077Z,59.34
2016-06-09T01:01:33.064Z,59.34
2016-06-09T01:02:33.067Z,59.25
2016-06-09T01:03:33.070Z,59.05
2016-06-09T01:04:33.026Z,59.44
2016-06-09T01:05:33.014Z,59.25
2016-06-09T01:06:33.001Z,59.34
2016-06-09T01:07:32.988Z,60.41
2016-06-09T01:08:32.976Z,59.7
2016-06-09T01:09:32.948Z,60.31
2016-06-09T01:10:32.967Z,60.76
2016-06-09T01:11:32.939Z,60.67
2016-06-09T01:12:32.926Z,59.83
2016-06-09T01:13:32.913Z,60.41
2016-06-09T01:14:32.885Z,60.6
2016-06-09T01:15:32.888Z,60.6
2016-06-09T01:16:32.860Z,60.41
2016-06-09T01:17:32.863Z,61.54
2016-06-09T01:18:32.851Z,61.44
2016-06-09T01:19:32.822Z,61.47
2016-06-09T01:20:32.809Z,61.54
2016-06-09T01:21:32.798Z,61.54
2016-06-09T01:22:32.785Z,61.44
2016-06-09T01:23:32.787Z,61.63
2016-06-09T01:24:32.760Z,61.92
2016-06-09T01:25:32.747Z,61.63
2016-06-09T01:26:32.750Z,61.34
2016-06-09T01:27:32.721Z,61.83
2016-06-09T01:28:32.709Z,61.83
2016-06-09T01:29:32.698Z,62.6
2016-06-09T01:30:32.684Z,62.31
2016-06-09T01:31:32.672Z,62.37
2016-06-09T01:32:32.659Z,61.83
2016-06-09T01:33:33.475Z,62.89
2016-06-09T01:34:33.665Z,62.6
2016-06-09T01:35:32.621Z,62.7
2016-06-09T01:36:32.594Z,62.31
2016-06-09T01:37:32.580Z,62.02
2016-06-09T01:38:32.584Z,62.12
2016-06-09T01:39:32.556Z,63.28
2016-06-09T01:40:32.559Z,62.79
2016-06-09T01:41:32.531Z,63.37
2016-06-09T01:42:32.518Z,62.95
2016-06-09T01:43:32.505Z,62.89
2016-06-09T01:44:32.493Z,62.98
2016-06-09T01:45:32.481Z,62.98
2016-06-09T01:46:32.483Z,63.28
2016-06-09T01:47:32.456Z,62.89
2016-06-09T01:48:32.443Z,63.95
2016-06-09T01:49:32.431Z,64.5
2016-06-09T01:50:32.418Z,64.21
2016-06-09T01:51:32.405Z,64.01
2016-06-09T01:52:32.393Z,64.31
2016-06-09T01:53:32.380Z,64.11
2016-06-09T01:54:32.367Z,63.28
2016-06-09T01:55:32.339Z,64.05
2016-06-09T01:56:32.342Z,65.08
2016-06-09T01:57:32.314Z,65.56
2016-06-09T01:58:32.301Z,65.72
2016-06-09T01:59:32.290Z,65.56
2016-06-09T02:00:32.292Z,66.05
2016-06-09T02:01:32.264Z,65.72
2016-06-09T02:02:32.252Z,66.3
2016-06-09T02:03:32.896Z,66.88
2016-06-09T02:04:32.227Z,66.88
2016-06-09T02:05:32.214Z,67.36
2016-06-09T02:06:32.201Z,66.88
2016-06-09T02:07:32.189Z,67.65
2016-06-09T02:08:32.176Z,67.27
2016-06-09T02:09:32.148Z,67.55
2016-06-09T02:10:32.135Z,67.65
2016-06-09T02:11:32.138Z,67.55
2016-06-09T02:12:32.110Z,68.04
2016-06-09T02:13:32.114Z,68.52
2016-06-09T02:14:32.085Z,69.07
2016-06-09T02:15:32.073Z,68.97
2016-06-09T02:16:32.061Z,68.59
2016-06-09T02:17:32.048Z,68.87
2016-06-09T02:18:32.175Z,69.07
2016-06-09T02:19:32.038Z,69.35
2016-06-09T02:20:32.010Z,69.64
2016-06-09T02:21:31.996Z,69.16
2016-06-09T02:22:31.985Z,69.74
2016-06-09T02:23:31.957Z,69.55
2016-06-09T02:24:31.944Z,69.45
2016-06-09T02:25:31.931Z,68.59
2016-06-09T02:26:31.919Z,68.62
2016-06-09T02:27:31.906Z,68.68
2016-06-09T02:28:31.894Z,69.07
2016-06-09T02:29:31.882Z,68.49
2016-06-09T02:30:31.869Z,68.59
2016-06-09T02:31:31.857Z,68.62
2016-06-09T02:32:31.844Z,68.77
2016-06-09T02:33:31.925Z,68.71
2016-06-09T02:34:31.819Z,68.49
2016-06-09T02:35:31.790Z,68.39
2016-06-09T02:36:31.793Z,68.29
2016-06-09T02:37:31.781Z,69.16
2016-06-09T02:38:31.754Z,69.16
2016-06-09T02:39:31.756Z,69.35
2016-06-09T02:40:31.727Z,69.35
2016-06-09T02:41:31.716Z,69.64
2016-06-09T02:42:31.687Z,69.74
2016-06-09T02:43:31.689Z,69.93
2016-06-09T02:44:31.678Z,69.64
2016-06-09T02:45:31.664Z,69.74
2016-06-09T02:46:31.653Z,69.74
2016-06-09T02:47:31.640Z,69.64
2016-06-09T02:48:32.126Z,70.42
2016-06-09T02:49:31.615Z,70.09
2016-06-09T02:50:31.586Z,69.9
2016-06-09T02:51:31.574Z,70.13
2016-06-09T02:52:31.561Z,70.57
2016-06-09T02:53:31.549Z,70.38
2016-06-09T02:54:31.536Z,70.67
2016-06-09T02:55:31.524Z,70.28
2016-06-09T02:56:31.495Z,71.15
2016-06-09T02:57:31.482Z,70
2016-06-09T02:58:31.486Z,70.09
2016-06-09T02:59:31.458Z,70.28
2016-06-09T03:00:31.445Z,69.74
2016-06-09T03:01:31.433Z,70.03
2016-06-09T03:02:31.420Z,70.22
2016-06-09T03:03:31.408Z,70.19
2016-06-09T03:04:31.926Z,70.51
2016-06-09T03:05:31.383Z,70.51
2016-06-09T03:06:31.354Z,70.28
2016-06-09T03:07:31.357Z,71.44
2016-06-09T03:08:31.330Z,71.15
2016-06-09T03:09:31.333Z,70.96
2016-06-09T03:10:31.304Z,70.38
2016-06-09T03:11:31.292Z,70.32
2016-06-09T03:12:31.279Z,70.32
2016-06-09T03:13:31.267Z,70.03
2016-06-09T03:14:31.253Z,70.48
2016-06-09T03:15:31.242Z,70.67
2016-06-09T03:16:31.229Z,70.86
2016-06-09T03:17:31.216Z,71.44
2016-06-09T03:18:31.204Z,71.44
2016-06-09T03:19:31.035Z,70.76
2016-06-09T03:20:31.178Z,71.34
2016-06-09T03:21:31.150Z,71.44
2016-06-09T03:22:31.138Z,71.44
2016-06-09T03:23:31.125Z,71.44
2016-06-09T03:24:31.112Z,71.44
2016-06-09T03:25:31.101Z,71.44
2016-06-09T03:26:31.088Z,71.44
2016-06-09T03:27:31.074Z,71.64
2016-06-09T03:28:31.047Z,71.25
2016-06-09T03:29:30.894Z,71.54
2016-06-09T03:30:31.022Z,71.64
2016-06-09T03:31:31.009Z,71.44
2016-06-09T03:32:30.998Z,71.44
2016-06-09T03:33:30.984Z,71.34
2016-06-09T03:34:31.518Z,71.73
2016-06-09T03:35:30.960Z,71.64
2016-06-09T03:36:30.947Z,71.25
2016-06-09T03:37:30.934Z,71.44
2016-06-09T03:38:30.922Z,71.44
2016-06-09T03:39:30.925Z,71.54
2016-06-09T03:40:30.881Z,71.64
2016-06-09T03:41:30.883Z,71.44
2016-06-09T03:42:30.871Z,71.54
2016-06-09T03:43:30.843Z,71.25
2016-06-09T03:44:30.831Z,71.64
2016-06-09T03:45:30.818Z,71.44
2016-06-09T03:46:30.805Z,72.41
2016-06-09T03:47:30.793Z,72.37
2016-06-09T03:48:30.780Z,72.37
2016-06-09T03:49:30.597Z,72.27
2016-06-09T03:50:30.755Z,72.66
2016-06-09T03:51:30.742Z,72.31
2016-06-09T03:52:30.715Z,72.69
2016-06-09T03:53:30.718Z,72.31
2016-06-09T03:54:30.704Z,72.21
2016-06-09T03:55:30.677Z,71.83
2016-06-09T03:56:30.664Z,72.02
2016-06-09T03:57:30.652Z,71.92
2016-06-09T03:58:30.639Z,71.73
2016-06-09T03:59:30.611Z,72.21
2016-06-09T04:00:30.598Z,72.6
2016-06-09T04:01:30.586Z,72.66
2016-06-09T04:02:30.574Z,72.5
2016-06-09T04:03:30.561Z,71.92
2016-06-09T04:04:30.548Z,71.54
2016-06-09T04:05:30.536Z,71.44
2016-06-09T04:06:30.524Z,71.44
2016-06-09T04:07:30.511Z,71.34
2016-06-09T04:08:30.497Z,71.54
2016-06-09T04:09:30.470Z,71.64
2016-06-09T04:10:30.317Z,71.34
2016-06-09T04:11:30.445Z,71.15
2016-06-09T04:12:30.432Z,71.15
2016-06-09T04:13:30.420Z,70.96
2016-06-09T04:14:30.407Z,71.44
2016-06-09T04:15:30.395Z,72.31
2016-06-09T04:16:30.383Z,71.83
2016-06-09T04:17:30.369Z,71.64
2016-06-09T04:18:30.356Z,71.92
2016-06-09T04:19:30.798Z,71.15
2016-06-09T04:20:30.332Z,71.25
2016-06-09T04:21:30.303Z,71.15
2016-06-09T04:22:30.291Z,70.13
2016-06-09T04:23:30.122Z,70.9
2016-06-09T04:24:30.266Z,71.15
2016-06-09T04:25:30.253Z,71.15
2016-06-09T04:26:30.241Z,71.83
2016-06-09T04:27:30.228Z,71.54
2016-06-09T04:28:30.200Z,71.06
2016-06-09T04:29:30.204Z,70.96
2016-06-09T04:30:30.191Z,71.06
2016-06-09T04:31:30.163Z,71.06
2016-06-09T04:32:30.149Z,71.25
2016-06-09T04:33:30.138Z,71.54
2016-06-09T04:34:30.203Z,70.76
2016-06-09T04:35:30.112Z,71.15
2016-06-09T04:36:30.100Z,71.25
2016-06-09T04:37:30.087Z,71.25
2016-06-09T04:38:30.075Z,71.64
2016-06-09T04:39:30.046Z,70.96
2016-06-09T04:40:30.049Z,71.73
2016-06-09T04:41:30.021Z,71.73
2016-06-09T04:42:30.009Z,71.25
2016-06-09T04:43:29.997Z,71.25
2016-06-09T04:44:29.983Z,71.06
2016-06-09T04:45:29.971Z,71.25
2016-06-09T04:46:29.959Z,70.96
2016-06-09T04:47:29.946Z,71.25
2016-06-09T04:48:29.933Z,71.64
2016-06-09T04:49:30.406Z,71.25
2016-06-09T04:50:29.909Z,71.98
2016-06-09T04:51:29.880Z,71.73
2016-06-09T04:52:29.868Z,71.54
2016-06-09T04:53:29.855Z,71.44
2016-06-09T04:54:29.842Z,71.25
2016-06-09T04:55:29.830Z,71.73
2016-06-09T04:56:29.817Z,71.44
2016-06-09T04:57:29.806Z,71.64
2016-06-09T04:58:29.793Z,70.86
2016-06-09T04:59:29.779Z,71.64
2016-06-09T05:00:29.752Z,70.96
2016-06-09T05:01:29.739Z,71.64
2016-06-09T05:02:29.727Z,71.54
2016-06-09T05:03:29.730Z,71.15
2016-06-09T05:04:29.857Z,71.34
2016-06-09T05:05:29.689Z,71.73
2016-06-09T05:06:29.676Z,71.7
2016-06-09T05:07:29.648Z,72.31
2016-06-09T05:08:29.652Z,71.83
2016-06-09T05:09:29.638Z,71.92
2016-06-09T05:10:29.610Z,71.64
2016-06-09T05:11:29.599Z,72.31
2016-06-09T05:12:29.586Z,72.31
2016-06-09T05:13:29.572Z,72.69
2016-06-09T05:14:29.561Z,72.12
2016-06-09T05:15:29.548Z,72.31
2016-06-09T05:16:29.535Z,72.18
2016-06-09T05:17:29.507Z,71.92
2016-06-09T05:18:29.510Z,72.21
2016-06-09T05:19:29.623Z,72.85
2016-06-09T05:20:29.641Z,72.27
2016-06-09T05:21:29.457Z,72.02
2016-06-09T05:22:29.444Z,72.31
2016-06-09T05:23:29.431Z,72.6
2016-06-09T05:24:29.403Z,72.21
2016-06-09T05:25:29.407Z,72.69
2016-06-09T05:26:29.395Z,72.79
2016-06-09T05:27:29.366Z,73.47
2016-06-09T05:28:29.353Z,73.33
2016-06-09T05:29:29.341Z,72.56
2016-06-09T05:30:29.344Z,72.41
2016-06-09T05:31:29.316Z,72.89
2016-06-09T05:32:29.303Z,73.08
2016-06-09T05:33:29.291Z,73.62
2016-06-09T05:34:29.903Z,73.82
2016-06-09T05:35:29.891Z,73.91
2016-06-09T05:36:29.253Z,73.82
2016-06-09T05:37:29.224Z,73.72
2016-06-09T05:38:29.212Z,73.53
2016-06-09T05:39:29.200Z,73.43
2016-06-09T05:40:29.188Z,74.68
2016-06-09T05:41:29.175Z,75.26
2016-06-09T05:42:29.162Z,75.32
2016-06-09T05:43:29.149Z,74.68
2016-06-09T05:44:28.965Z,74.88
2016-06-09T05:45:29.108Z,74.97
2016-06-09T05:46:29.096Z,74.97
2016-06-09T05:47:29.084Z,75.8
2016-06-09T05:48:29.071Z,75.93
2016-06-09T05:49:29.058Z,75.74
2016-06-09T05:50:29.249Z,75.74
2016-06-09T05:51:29.033Z,75.16
2016-06-09T05:52:29.020Z,75.74
2016-06-09T05:53:29.008Z,75.74
2016-06-09T05:54:28.981Z,75.74
2016-06-09T05:55:28.968Z,76.61
2016-06-09T05:56:28.954Z,76.23
2016-06-09T05:57:28.943Z,76.13
2016-06-09T05:58:28.930Z,76.03
2016-06-09T05:59:28.917Z,77.09
2016-06-09T06:00:28.905Z,76.57
2016-06-09T06:01:28.893Z,76.23
2016-06-09T06:02:28.880Z,77.09
2016-06-09T06:03:28.868Z,77.63
2016-06-09T06:04:29.526Z,77.15
2016-06-09T06:05:28.823Z,77.09
2016-06-09T06:06:28.810Z,76.8
2016-06-09T06:07:28.798Z,76.61
2016-06-09T06:08:28.785Z,76.8
2016-06-09T06:09:28.773Z,76.61
2016-06-09T06:10:28.761Z,77.96
2016-06-09T06:11:28.748Z,77.76
2016-06-09T06:12:28.736Z,79.08
2016-06-09T06:13:28.723Z,78.11
2016-06-09T06:14:28.695Z,79.11
2016-06-09T06:15:28.682Z,79.46
2016-06-09T06:16:28.670Z,79.56
2016-06-09T06:17:28.657Z,79.17
2016-06-09T06:18:28.644Z,78.98
2016-06-09T06:19:28.633Z,79.36
2016-06-09T06:20:28.464Z,79.66
2016-06-09T06:21:28.607Z,79.85
2016-06-09T06:22:28.595Z,79.66
2016-06-09T06:23:29.067Z,79.56
2016-06-09T06:24:28.570Z,80.04
2016-06-09T06:25:28.541Z,80.43
2016-06-09T06:26:28.529Z,79.56
2016-06-09T06:27:28.516Z,80.23
2016-06-09T06:28:28.503Z,79.94
2016-06-09T06:29:28.491Z,80.23
2016-06-09T06:30:28.464Z,80.71
2016-06-09T06:31:28.450Z,79.46
2016-06-09T06:32:28.453Z,79.08
2016-06-09T06:33:28.425Z,79.11
2016-06-09T06:34:28.413Z,78.92
2016-06-09T06:35:28.399Z,79.11
2016-06-09T06:36:28.372Z,80.04
2016-06-09T06:37:28.360Z,79.66
2016-06-09T06:38:28.347Z,80.52
2016-06-09T06:39:28.178Z,79.85
2016-06-09T06:40:28.322Z,79.36
2016-06-09T06:41:28.309Z,80.08
2016-06-09T06:42:28.296Z,80.04
2016-06-09T06:43:30.585Z,79.56
2016-06-09T06:44:28.272Z,79.75
2016-06-09T06:45:28.259Z,79.89
2016-06-09T06:46:28.230Z,80.08
2016-06-09T06:47:28.218Z,79.94
2016-06-09T06:48:28.206Z,79.85
2016-06-09T06:49:28.193Z,79.75
2016-06-09T06:50:28.181Z,80.23
2016-06-09T06:51:28.168Z,79.89
2016-06-09T06:52:28.155Z,80.23
2016-06-09T06:53:28.143Z,79.66
2016-06-09T06:54:28.115Z,79.11
2016-06-09T06:55:28.118Z,79.21
2016-06-09T06:56:28.089Z,79.56
2016-06-09T06:57:28.077Z,79.36
2016-06-09T06:58:28.080Z,79.17
2016-06-09T06:59:28.053Z,79.02
2016-06-09T07:00:28.040Z,79.21
2016-06-09T07:01:28.026Z,79.6
2016-06-09T07:02:28.014Z,78.92
2016-06-09T07:03:27.986Z,79.02
2016-06-09T07:04:27.974Z,79.31
2016-06-09T07:05:28.445Z,78.92
2016-06-09T07:06:27.808Z,79.21
2016-06-09T07:07:27.936Z,79.6
2016-06-09T07:08:27.923Z,79.21
2016-06-09T07:09:27.911Z,79.69
2016-06-09T07:10:27.898Z,79.02
2016-06-09T07:11:27.886Z,78.63
2016-06-09T07:12:27.873Z,78.63
2016-06-09T07:13:29.141Z,78.29
2016-06-09T07:14:27.848Z,78.06
2016-06-09T07:15:27.820Z,77.61
2016-06-09T07:16:27.807Z,77.42
2016-06-09T07:17:27.795Z,76.55
2016-06-09T07:18:31.422Z,76.84
2016-06-09T07:19:27.770Z,77.33
2016-06-09T07:20:27.757Z,77.42
2016-06-09T07:21:27.745Z,77.61
2016-06-09T07:22:27.732Z,77.03
2016-06-09T07:23:28.891Z,76.93
2016-06-09T07:24:27.691Z,76.93
2016-06-09T07:25:27.694Z,77.03
2016-06-09T07:26:27.667Z,77.61
2016-06-09T07:27:27.654Z,77.33
2016-06-09T07:28:27.642Z,77.71
2016-06-09T07:29:27.628Z,77.42
2016-06-09T07:30:27.663Z,76.45
2016-06-09T07:31:27.588Z,76.65
2016-06-09T07:32:27.591Z,76.59
2016-06-09T07:33:27.578Z,76.2
2016-06-09T07:34:27.549Z,77.13
2016-06-09T07:35:27.538Z,76.75
2016-06-09T07:36:27.525Z,76.55
2016-06-09T07:37:27.512Z,76.65
2016-06-09T07:38:27.500Z,76.84
2016-06-09T07:39:27.487Z,76.84
2016-06-09T07:40:27.474Z,76.93
2016-06-09T07:41:27.462Z,76.93
2016-06-09T07:42:27.434Z,76.55
2016-06-09T07:43:27.438Z,76.84
2016-06-09T07:44:27.424Z,77.13
2016-06-09T07:45:27.397Z,76.75
2016-06-09T07:46:27.384Z,76.55
2016-06-09T07:47:27.371Z,76.84
2016-06-09T07:48:29.499Z,76.93
2016-06-09T07:49:27.346Z,76.07
2016-06-09T07:50:27.334Z,76.45
2016-06-09T07:51:27.337Z,76.84
2016-06-09T07:52:27.294Z,76.84
2016-06-09T07:53:27.296Z,77.03
2016-06-09T07:54:27.267Z,76.93
2016-06-09T07:55:27.255Z,76.65
2016-06-09T07:56:27.243Z,76.45
2016-06-09T07:57:27.231Z,76.4
2016-06-09T07:58:27.218Z,76.45
2016-06-09T07:59:27.204Z,76.59
2016-06-09T08:00:27.208Z,75.53
2016-06-09T08:01:27.180Z,76.2
2016-06-09T08:02:27.167Z,75.82
2016-06-09T08:03:27.155Z,75.92
2016-06-09T08:04:27.142Z,75.92
2016-06-09T08:05:27.130Z,76.01
2016-06-09T08:06:27.102Z,76.3
2016-06-09T08:07:27.089Z,75.62
2016-06-09T08:08:27.077Z,76.1
2016-06-09T08:09:27.064Z,75.92
2016-06-09T08:10:27.051Z,75.92
2016-06-09T08:11:27.039Z,75.67
2016-06-09T08:12:27.027Z,75.67
2016-06-09T08:13:27.013Z,75.09
2016-06-09T08:14:27.001Z,75.67
2016-06-09T08:15:26.988Z,75.67
2016-06-09T08:16:26.976Z,76.05
2016-06-09T08:17:26.948Z,75.72
2016-06-09T08:18:26.951Z,75.05
2016-06-09T08:19:26.923Z,75.18
2016-06-09T08:20:26.927Z,74.69
2016-06-09T08:21:26.897Z,75.18
2016-06-09T08:22:26.886Z,74.51
2016-06-09T08:23:26.872Z,74.99
2016-06-09T08:24:26.860Z,74.31
2016-06-09T08:25:26.850Z,74.31
2016-06-09T08:26:26.879Z,73.86
2016-06-09T08:27:26.910Z,73.86
2016-06-09T08:28:26.955Z,73.83
2016-06-09T08:29:26.970Z,74.51
2016-06-09T08:30:26.999Z,74.12
2016-06-09T08:31:27.001Z,73.54
2016-06-09T08:32:27.004Z,73.58
2016-06-09T08:33:27.007Z,73.28
2016-06-09T08:34:27.009Z,72.9
2016-06-09T08:35:27.183Z,73.09
2016-06-09T08:36:27.005Z,72.71
2016-06-09T08:37:26.983Z,72.64
2016-06-09T08:38:26.975Z,72.52
2016-06-09T08:39:26.827Z,72.52
2016-06-09T08:40:26.960Z,72.26
2016-06-09T08:41:26.949Z,72.16
2016-06-09T08:42:26.783Z,72.13
2016-06-09T08:43:26.773Z,71.94
2016-06-09T08:44:26.918Z,71.84
2016-06-09T08:45:26.985Z,71.94
2016-06-09T08:46:26.895Z,71.97
2016-06-09T08:47:26.883Z,71.97
2016-06-09T08:48:27.106Z,72.32
2016-06-09T08:49:26.845Z,71.88
2016-06-09T08:50:26.849Z,71.58
2016-06-09T08:51:26.820Z,72.45
2016-06-09T08:52:26.808Z,71.88
2016-06-09T08:53:26.640Z,71.39
2016-06-09T08:54:26.644Z,71
2016-06-09T08:55:26.616Z,70.62
2016-06-09T08:56:26.760Z,70.52
2016-06-09T08:57:26.747Z,70.65
2016-06-09T08:58:26.751Z,70.17
2016-06-09T08:59:26.722Z,69.68
2016-06-09T09:00:26.724Z,69.98
2016-06-09T09:01:26.712Z,70.14
2016-06-09T09:02:26.683Z,70.46
2016-06-09T09:03:26.671Z,69.98
2016-06-09T09:04:26.658Z,69.68
2016-06-09T09:05:26.647Z,69.72
2016-06-09T09:06:26.634Z,68.85
2016-06-09T09:07:26.621Z,68.37
2016-06-09T09:08:26.609Z,68.46
2016-06-09T09:09:26.596Z,69.04
2016-06-09T09:10:26.583Z,69.46
2016-06-09T09:11:26.572Z,68.85
2016-06-09T09:12:26.558Z,68.69
2016-06-09T09:13:26.547Z,68.69
2016-06-09T09:14:26.534Z,69.37
2016-06-09T09:15:26.537Z,68.11
2016-06-09T09:16:26.539Z,68.11
2016-06-09T09:17:26.496Z,67.72
2016-06-09T09:18:26.327Z,67.82
2016-06-09T09:19:26.471Z,68.21
2016-06-09T09:20:27.021Z,67.24
2016-06-09T09:21:26.571Z,67.08
2016-06-09T09:22:26.433Z,67.33
2016-06-09T09:23:26.420Z,66.95
2016-06-09T09:24:26.251Z,67.91
2016-06-09T09:25:26.395Z,68.11
2016-06-09T09:26:26.382Z,67.43
2016-06-09T09:27:26.370Z,66.85
2016-06-09T09:28:26.358Z,67.24
2016-06-09T09:29:26.345Z,67.53
2016-06-09T09:30:26.332Z,67.05
2016-06-09T09:31:26.320Z,66.4
2016-06-09T09:32:26.307Z,66.88
2016-06-09T09:33:26.294Z,66.5
2016-06-09T09:34:26.282Z,67.08
2016-06-09T09:35:26.301Z,66.95
2016-06-09T09:36:26.273Z,66.98
2016-06-09T09:37:26.245Z,67.18
2016-06-09T09:38:26.233Z,66.85
2016-06-09T09:39:26.219Z,66.98
2016-06-09T09:40:26.519Z,66.78
2016-06-09T09:41:26.632Z,67.18
2016-06-09T09:42:26.182Z,67.18
2016-06-09T09:43:26.184Z,67.18
2016-06-09T09:44:26.157Z,67.18
2016-06-09T09:45:26.160Z,67.27
2016-06-09T09:46:26.148Z,66.69
2016-06-09T09:47:26.119Z,66.78
2016-06-09T09:48:26.106Z,66.34
2016-06-09T09:49:26.094Z,66.24
2016-06-09T09:50:26.097Z,66.02
2016-06-09T09:51:26.070Z,65.56
2016-06-09T09:52:26.073Z,66.05
2016-06-09T09:53:26.090Z,66.24
2016-06-09T09:54:26.062Z,65.66
2016-06-09T09:55:26.019Z,65.82
2016-06-09T09:56:26.022Z,65.53
2016-06-09T09:57:25.993Z,64.59
2016-06-09T09:58:25.997Z,64.2
2016-06-09T09:59:25.983Z,64.59
2016-06-09T10:00:25.816Z,64.59
2016-06-09T10:01:25.975Z,64.69
2016-06-09T10:02:25.947Z,64.69
2016-06-09T10:03:25.934Z,64.4
2016-06-09T10:04:25.921Z,64.69
2016-06-09T10:05:25.752Z,65.17
2016-06-09T10:06:25.896Z,64.3
2016-06-09T10:07:25.883Z,64.2
2016-06-09T10:08:25.871Z,63.53
2016-06-09T10:09:25.703Z,63.82
2016-06-09T10:10:25.846Z,62.49
2016-06-09T10:11:25.834Z,62.98
2016-06-09T10:12:25.821Z,61.72
2016-06-09T10:13:25.824Z,61.94
2016-06-09T10:14:25.812Z,62.3
2016-06-09T10:15:25.783Z,61.65
2016-06-09T10:16:25.849Z,61.94
2016-06-09T10:17:25.618Z,62.13
2016-06-09T10:18:25.761Z,61.55
2016-06-09T10:19:25.749Z,61.17
2016-06-09T10:20:26.236Z,60.58
2016-06-09T10:21:25.724Z,60.52
2016-06-09T10:22:25.758Z,60.42
2016-06-09T10:23:25.715Z,59.64
2016-06-09T10:24:25.686Z,59.45
2016-06-09T10:25:25.704Z,59.84
2016-06-09T10:26:25.676Z,59.26
2016-06-09T10:27:25.649Z,59.58
2016-06-09T10:28:25.636Z,59.19
2016-06-09T10:29:25.639Z,58.34
2016-06-09T10:30:25.626Z,58.34
2016-06-09T10:31:25.615Z,58.12
2016-06-09T10:32:25.601Z,57.67
2016-06-09T10:33:25.588Z,59.41
2016-06-09T10:34:25.576Z,60.32
2016-06-09T10:35:25.985Z,61.1
2016-06-09T10:36:25.661Z,60.39
2016-06-09T10:37:25.554Z,59.06
2016-06-09T10:38:25.619Z,58.03
2016-06-09T10:39:25.528Z,56.98
2016-06-09T10:40:25.517Z,57.86
2016-06-09T10:41:25.582Z,57.25
2016-06-09T10:42:25.491Z,55.92
2016-06-09T10:43:25.526Z,56.86
2016-06-09T10:44:25.482Z,55.31
2016-06-09T10:45:25.469Z,54.85
2016-06-09T10:46:25.458Z,54.36
2016-06-09T10:47:25.444Z,53.91
2016-06-09T10:48:25.431Z,53.83
2016-06-09T10:49:25.435Z,53.22
2016-06-09T10:50:25.875Z,52.67
2016-06-09T10:51:25.410Z,52.35
2016-06-09T10:52:25.382Z,52.37
2016-06-09T10:53:25.385Z,52.76
2016-06-09T10:54:25.513Z,53.74
2016-06-09T10:55:25.343Z,53.64
2016-06-09T10:56:25.347Z,53.54
2016-06-09T10:57:25.366Z,52.31
2016-06-09T10:58:25.322Z,52.21
2016-06-09T10:59:25.325Z,51.82
2016-06-09T11:00:25.313Z,51.36
2016-06-09T11:01:25.378Z,52.14
2016-06-09T11:02:25.303Z,51.84
2016-06-09T11:03:25.274Z,52.04
2016-06-09T11:04:25.263Z,51.65
2016-06-09T11:05:25.281Z,51.75
2016-06-09T11:06:25.268Z,52.14
2016-06-09T11:07:25.240Z,52.01
2016-06-09T11:08:25.243Z,51.17
2016-06-09T11:09:25.215Z,50.58
2016-06-09T11:10:25.218Z,50.19
2016-06-09T11:11:25.205Z,51.75
2016-06-09T11:12:25.037Z,51.79
2016-06-09T11:13:25.180Z,51.6
2016-06-09T11:14:25.168Z,51.01
2016-06-09T11:15:25.202Z,51.72
2016-06-09T11:16:25.174Z,50.65
2016-06-09T11:17:25.145Z,51.72
2016-06-09T11:18:25.133Z,51.4
2016-06-09T11:19:25.137Z,50.09
2016-06-09T11:20:25.123Z,49.41
2016-06-09T11:21:26.424Z,49.99
2016-06-09T11:22:25.099Z,49.9
2016-06-09T11:23:25.086Z,49.87
2016-06-09T11:24:25.089Z,49.41
2016-06-09T11:25:25.061Z,48.46
2016-06-09T11:26:25.064Z,48.85
2016-06-09T11:27:25.051Z,49.34
2016-06-09T11:28:25.040Z,49.24
2016-06-09T11:29:25.026Z,47.78
2016-06-09T11:30:25.014Z,47.32
2016-06-09T11:31:25.001Z,47.71
2016-06-09T11:32:25.004Z,48
2016-06-09T11:33:24.992Z,47.61
2016-06-09T11:34:24.995Z,47.32
2016-06-09T11:35:24.982Z,46.91
2016-06-09T11:36:24.986Z,45.28
2016-06-09T11:37:24.973Z,46.17
2016-06-09T11:38:24.960Z,45.29
2016-06-09T11:39:24.948Z,44.34
2016-06-09T11:40:24.966Z,44.05
2016-06-09T11:41:24.939Z,43.57
2016-06-09T11:42:24.941Z,42.88
2016-06-09T11:43:24.929Z,42.59
2016-06-09T11:44:25.057Z,43.85
2016-06-09T11:45:24.920Z,43.76
2016-06-09T11:46:24.923Z,43.37
2016-06-09T11:47:24.910Z,43.47
2016-06-09T11:48:24.757Z,41.44
2016-06-09T11:49:24.915Z,41.66
2016-06-09T11:50:24.747Z,40.21
2016-06-09T11:51:25.438Z,41.87
2016-06-09T11:52:24.910Z,41.05
2016-06-09T11:53:24.897Z,41.35
2016-06-09T11:54:24.917Z,41.66
2016-06-09T11:55:24.887Z,41.75
2016-06-09T11:56:24.891Z,41.73
2016-06-09T11:57:24.893Z,41.83
2016-06-09T11:58:24.897Z,40.78
2016-06-09T11:59:24.885Z,39.84
2016-06-09T12:00:24.902Z,39.75
2016-06-09T12:01:24.891Z,39.57
2016-06-09T12:02:24.894Z,38.42
2016-06-09T12:03:24.881Z,38.73
2016-06-09T12:04:24.884Z,38.04
2016-06-09T12:05:24.871Z,38.28
2016-06-09T12:06:25.437Z,38.26
2016-06-09T12:07:24.893Z,37.96
2016-06-09T12:08:24.865Z,37.59
2016-06-09T12:09:24.883Z,38.37
2016-06-09T12:10:24.871Z,38.35
2016-06-09T12:11:24.875Z,38.14
2016-06-09T12:12:24.877Z,38.18
2016-06-09T12:13:24.864Z,39.51
2016-06-09T12:14:24.867Z,39.39
2016-06-09T12:15:24.871Z,38.34
2016-06-09T12:16:24.859Z,38.24
2016-06-09T12:17:24.862Z,37.95
2016-06-09T12:18:24.865Z,38.42
2016-06-09T12:19:24.868Z,38.42
2016-06-09T12:20:24.855Z,39.18
2016-06-09T12:21:24.874Z,39.16
2016-06-09T12:22:24.861Z,39.28
2016-06-09T12:23:24.848Z,39.36
2016-06-09T12:24:24.852Z,38.69
2016-06-09T12:25:24.854Z,38.51
2016-06-09T12:26:24.858Z,39.65
2016-06-09T12:27:24.846Z,39.26
2016-06-09T12:28:24.832Z,39.18
2016-06-09T12:29:24.852Z,39.57
2016-06-09T12:30:24.839Z,39.57
2016-06-09T12:31:24.858Z,41.13
2016-06-09T12:32:24.829Z,41.31
2016-06-09T12:33:24.832Z,42.07
2016-06-09T12:34:24.679Z,42.63
2016-06-09T12:35:24.823Z,43.04
2016-06-09T12:36:24.827Z,41.09
2016-06-09T12:37:25.283Z,39.08
2016-06-09T12:38:24.817Z,40.72
2016-06-09T12:39:24.819Z,40.97
2016-06-09T12:40:24.838Z,40.97
2016-06-09T12:41:24.811Z,41.56
2016-06-09T12:42:24.814Z,40.76
2016-06-09T12:43:24.832Z,41.28
2016-06-09T12:44:24.788Z,41.97
2016-06-09T12:45:24.791Z,41.87
2016-06-09T12:46:24.888Z,41.31
2016-06-09T12:47:24.797Z,42.38
2016-06-09T12:48:24.785Z,42.16
2016-06-09T12:49:24.772Z,40.41
2016-06-09T12:50:24.776Z,39.26
2016-06-09T12:51:24.779Z,39
2016-06-09T12:52:24.765Z,39.67
2016-06-09T12:53:24.768Z,39.94
2016-06-09T12:54:24.771Z,39.92